Time;durP1;ratioP1;P1;durP2;ratioP2;P2;SDS_P1;SDS_P2;PMS_P1;PMS_P2;Temp;Humidity;BMP_temperature;BMP_pressure;BME280_temperature;BME280_humidity;BME280_pressure;Samples;Min_cycle;Max_cycle;Signal;HPM_P1;HPM_P2
2021/12/02 00:01:01;;;;;;;7.67;3.80;;;5.10;99.90;;;;;;4994646;28;20254;-54
2021/12/02 00:03:29;;;;;;;8.47;3.67;;;5.10;99.90;;;;;;4994457;28;20203;-54
2021/12/02 00:05:58;;;;;;;8.73;3.50;;;5.10;99.90;;;;;;4993953;28;20715;-53
2021/12/02 00:08:26;;;;;;;9.23;3.90;;;5.10;99.90;;;;;;4993993;28;20297;-55
2021/12/02 00:10:56;;;;;;;11.60;3.70;;;5.20;99.90;;;;;;4994182;28;20692;-56
2021/12/02 00:13:26;;;;;;;7.10;3.90;;;5.20;99.90;;;;;;4993564;28;20679;-54
2021/12/02 00:15:57;;;;;;;12.97;3.73;;;5.30;99.90;;;;;;4994148;28;20574;-53
2021/12/02 00:21:17;;;;;;;7.70;3.53;;;5.30;99.90;;;;;;4992336;28;20244;-55
2021/12/02 00:23:53;;;;;;;10.23;3.63;;;5.30;99.90;;;;;;4993756;28;20656;-55
2021/12/02 00:26:23;;;;;;;12.27;3.83;;;5.30;99.90;;;;;;4994004;28;20304;-54
2021/12/02 00:28:53;;;;;;;10.40;3.60;;;5.30;99.90;;;;;;4993712;28;20231;-55
2021/12/02 00:31:23;;;;;;;9.27;4.03;;;5.30;99.90;;;;;;4994227;28;20248;-54
2021/12/02 00:33:53;;;;;;;9.30;3.50;;;5.30;99.90;;;;;;4993945;28;20604;-53
2021/12/02 00:36:24;;;;;;;6.37;3.20;;;5.30;99.90;;;;;;4993503;28;20662;-55
2021/12/02 00:38:53;;;;;;;8.83;3.20;;;5.30;99.90;;;;;;4993776;28;20761;-54
2021/12/02 00:41:24;;;;;;;11.33;3.80;;;5.20;99.90;;;;;;4993394;28;20215;-55
2021/12/02 00:43:55;;;;;;;10.00;3.73;;;5.20;99.90;;;;;;4993490;28;20231;-54
2021/12/02 00:46:24;;;;;;;7.90;3.50;;;5.20;99.90;;;;;;4993429;28;20678;-53
2021/12/02 00:48:53;;;;;;;11.47;4.00;;;5.10;99.90;;;;;;4993654;28;20259;-54
2021/12/02 00:51:21;;;;;;;10.40;3.50;;;5.00;99.90;;;;;;4993285;28;20224;-54
2021/12/02 00:53:53;;;;;;;11.27;3.90;;;4.90;99.90;;;;;;4993636;28;20627;-55
2021/12/02 00:56:25;;;;;;;6.83;3.60;;;4.80;99.90;;;;;;4993221;28;20199;-55
2021/12/02 00:58:54;;;;;;;7.50;3.23;;;4.70;99.90;;;;;;4993361;28;20717;-54
2021/12/02 01:01:24;;;;;;;15.40;3.53;;;4.60;99.90;;;;;;4992845;28;20247;-55
2021/12/02 01:03:57;;;;;;;8.73;3.57;;;4.50;99.90;;;;;;4993373;28;20214;-54
2021/12/02 01:06:25;;;;;;;10.97;3.80;;;4.50;99.90;;;;;;4992988;28;20716;-53
2021/12/02 01:08:54;;;;;;;6.47;3.00;;;4.40;99.90;;;;;;4993085;28;20295;-54
2021/12/02 01:11:24;;;;;;;9.50;3.63;;;4.40;99.90;;;;;;4993053;28;20261;-53
2021/12/02 01:13:52;;;;;;;13.47;3.30;;;4.30;99.90;;;;;;4992836;28;20263;-55
2021/12/02 01:16:21;;;;;;;8.43;3.40;;;4.20;99.90;;;;;;4993169;28;20246;-55
2021/12/02 01:18:50;;;;;;;6.97;3.03;;;4.30;99.90;;;;;;4992472;28;20241;-54
2021/12/02 01:21:20;;;;;;;10.60;3.40;;;4.30;99.90;;;;;;4992511;28;20253;-54
2021/12/02 01:23:51;;;;;;;6.80;2.80;;;4.30;99.90;;;;;;4992422;28;20871;-54
2021/12/02 01:26:20;;;;;;;8.33;3.10;;;4.40;99.90;;;;;;4992343;28;20214;-54
2021/12/02 01:28:50;;;;;;;7.73;3.10;;;4.40;99.90;;;;;;4992705;28;20245;-54
2021/12/02 01:31:18;;;;;;;8.27;3.33;;;4.50;99.90;;;;;;4992746;28;20210;-54
2021/12/02 01:33:48;;;;;;;10.30;3.20;;;4.50;99.90;;;;;;4992441;28;20214;-55
2021/12/02 01:36:16;;;;;;;7.73;3.17;;;4.50;99.90;;;;;;4992541;28;20206;-54
2021/12/02 01:38:44;;;;;;;8.33;3.07;;;4.50;99.90;;;;;;4993331;28;20266;-54
2021/12/02 01:41:12;;;;;;;5.53;3.03;;;4.60;99.90;;;;;;4992599;28;20241;-54
2021/12/02 01:43:47;;;;;;;7.40;3.33;;;4.60;99.90;;;;;;4992299;28;20698;-54
2021/12/02 01:46:18;;;;;;;13.40;3.80;;;4.50;99.90;;;;;;4994611;28;20669;-55
2021/12/02 01:49:00;;;;;;;8.53;3.27;;;4.60;99.90;;;;;;4993007;28;20269;-54
2021/12/02 01:51:29;;;;;;;8.97;3.90;;;4.60;99.90;;;;;;4992538;28;20239;-55
2021/12/02 01:54:04;;;;;;;8.53;2.90;;;4.60;99.90;;;;;;4992281;28;20237;-54
2021/12/02 01:56:36;;;;;;;9.53;3.40;;;4.60;99.90;;;;;;4992286;28;20276;-55
2021/12/02 01:59:11;;;;;;;12.43;3.70;;;4.60;99.90;;;;;;4992367;28;20257;-54
2021/12/02 02:01:43;;;;;;;8.10;3.53;;;4.70;99.90;;;;;;4992347;28;20196;-54
2021/12/02 02:04:13;;;;;;;10.73;3.30;;;4.70;99.90;;;;;;4992137;28;20209;-54
2021/12/02 02:06:45;;;;;;;10.07;3.40;;;4.70;99.90;;;;;;4991810;28;20313;-54
2021/12/02 02:09:13;;;;;;;12.80;3.67;;;4.70;99.90;;;;;;4991857;28;20268;-53
2021/12/02 02:11:41;;;;;;;11.37;3.30;;;4.70;99.90;;;;;;4971580;28;20680;-55
2021/12/02 02:14:10;;;;;;;7.63;3.50;;;4.70;99.90;;;;;;4972774;28;20243;-54
2021/12/02 02:16:41;;;;;;;11.33;4.00;;;4.70;99.90;;;;;;4973221;28;20246;-53
2021/12/02 02:19:11;;;;;;;12.57;3.80;;;4.70;99.90;;;;;;4972348;28;20239;-53
2021/12/02 02:21:42;;;;;;;10.07;3.40;;;4.70;99.90;;;;;;4984487;28;20295;-54
2021/12/02 02:24:13;;;;;;;10.83;3.63;;;4.70;99.90;;;;;;4991856;28;20254;-55
2021/12/02 02:26:43;;;;;;;7.97;2.93;;;4.70;99.90;;;;;;4991998;28;20254;-55
2021/12/02 02:29:13;;;;;;;9.77;3.60;;;4.70;99.90;;;;;;4991869;28;20313;-53
2021/12/02 02:31:44;;;;;;;13.70;3.50;;;4.70;99.90;;;;;;4991950;28;20209;-55
2021/12/02 02:34:13;;;;;;;7.47;3.10;;;4.80;99.90;;;;;;4991810;28;20303;-55
2021/12/02 02:36:51;;;;;;;8.80;3.23;;;4.70;99.90;;;;;;4991725;28;20635;-54
2021/12/02 02:39:20;;;;;;;9.83;3.67;;;4.80;99.90;;;;;;4991496;28;20264;-55
2021/12/02 02:41:54;;;;;;;8.63;3.60;;;4.70;99.90;;;;;;4991728;28;20254;-55
2021/12/02 02:44:24;;;;;;;14.33;4.10;;;4.70;99.90;;;;;;4994673;28;20300;-53
2021/12/02 02:46:52;;;;;;;8.37;3.77;;;4.60;99.90;;;;;;4995784;28;20662;-54
2021/12/02 02:49:20;;;;;;;10.33;4.00;;;4.60;99.90;;;;;;4995677;28;20350;-55
2021/12/02 02:51:50;;;;;;;10.07;3.80;;;4.60;99.90;;;;;;4995359;28;20214;-53
2021/12/02 02:54:20;;;;;;;9.47;3.20;;;4.60;99.90;;;;;;4995596;28;20212;-53
2021/12/02 02:56:55;;;;;;;8.17;3.70;;;4.60;99.90;;;;;;4995302;28;20298;-54
2021/12/02 02:59:32;;;;;;;10.57;3.77;;;4.60;99.90;;;;;;4995849;28;20254;-54
2021/12/02 03:02:09;;;;;;;11.57;3.93;;;4.60;99.90;;;;;;4995695;28;20235;-54
2021/12/02 03:04:44;;;;;;;12.63;3.70;;;4.60;99.90;;;;;;4995865;28;20221;-54
2021/12/02 03:07:21;;;;;;;11.57;3.70;;;4.70;99.90;;;;;;4995213;28;20254;-55
2021/12/02 03:09:59;;;;;;;14.30;4.63;;;4.70;99.90;;;;;;4995725;28;20261;-53
2021/12/02 03:12:31;;;;;;;9.97;4.00;;;4.70;99.90;;;;;;4995184;28;20276;-54
2021/12/02 03:17:46;;;;;;;9.80;3.40;;;4.70;99.90;;;;;;4995014;28;20243;-54
2021/12/02 03:20:14;;;;;;;12.13;4.47;;;4.70;99.90;;;;;;4995067;28;20285;-54
2021/12/02 03:22:44;;;;;;;10.87;3.73;;;4.60;99.90;;;;;;4994791;28;20239;-55
2021/12/02 03:25:12;;;;;;;15.37;4.23;;;4.70;99.90;;;;;;4995183;28;20219;-55
2021/12/02 03:27:40;;;;;;;11.57;3.70;;;4.70;99.90;;;;;;4994501;28;20322;-54
2021/12/02 03:30:09;;;;;;;16.10;4.07;;;4.70;99.90;;;;;;4995130;28;20319;-55
2021/12/02 03:32:38;;;;;;;12.13;4.30;;;4.70;99.90;;;;;;4994711;28;20237;-55
2021/12/02 03:35:07;;;;;;;10.47;3.97;;;4.70;99.90;;;;;;4995009;28;20294;-54
2021/12/02 03:37:36;;;;;;;11.87;4.57;;;4.60;99.90;;;;;;4994747;28;20203;-54
2021/12/02 03:40:07;;;;;;;11.73;4.03;;;4.60;99.90;;;;;;4994874;28;20788;-54
2021/12/02 03:42:35;;;;;;;16.80;4.63;;;4.50;99.90;;;;;;4994659;28;20245;-54
2021/12/02 03:45:04;;;;;;;11.90;4.37;;;4.50;99.90;;;;;;4994546;28;20668;-55
2021/12/02 03:47:32;;;;;;;10.83;3.77;;;4.50;99.90;;;;;;4994783;28;20263;-54
2021/12/02 03:50:00;;;;;;;10.90;3.87;;;4.50;99.90;;;;;;4994416;28;20266;-54
2021/12/02 03:52:28;;;;;;;14.30;4.47;;;4.50;99.90;;;;;;4994054;28;20238;-53
2021/12/02 03:54:56;;;;;;;12.90;4.03;;;4.60;99.90;;;;;;4994280;28;20689;-54
2021/12/02 03:57:28;;;;;;;12.67;4.03;;;4.50;99.90;;;;;;4994376;28;20256;-54
2021/12/02 03:59:56;;;;;;;11.37;3.90;;;4.60;99.90;;;;;;4994411;28;20856;-54
2021/12/02 04:02:24;;;;;;;9.37;4.10;;;4.60;99.90;;;;;;4994181;28;20747;-53
2021/12/02 04:04:53;;;;;;;13.13;4.17;;;4.60;99.90;;;;;;4994466;28;20616;-53
2021/12/02 04:07:24;;;;;;;9.80;3.63;;;4.60;99.90;;;;;;4994309;28;20314;-53
2021/12/02 04:09:54;;;;;;;9.97;4.53;;;4.70;99.90;;;;;;4994442;28;20219;-53
2021/12/02 04:12:28;;;;;;;13.83;4.03;;;4.70;99.90;;;;;;4993857;28;20293;-55
2021/12/02 04:15:01;;;;;;;11.90;3.63;;;4.70;99.90;;;;;;4993946;28;20247;-54
2021/12/02 04:17:40;;;;;;;12.47;3.87;;;4.70;99.90;;;;;;4993960;28;20247;-54
2021/12/02 04:20:13;;;;;;;14.00;4.30;;;4.70;99.90;;;;;;4994129;28;21042;-54
2021/12/02 04:22:45;;;;;;;7.97;4.20;;;4.70;99.90;;;;;;4993820;28;20220;-53
2021/12/02 04:25:14;;;;;;;13.33;4.30;;;4.60;99.90;;;;;;4993694;28;20246;-55
2021/12/02 04:27:43;;;;;;;15.47;4.30;;;4.70;99.90;;;;;;4993682;28;20663;-54
2021/12/02 04:30:15;;;;;;;8.37;3.67;;;4.70;99.90;;;;;;4993849;28;20665;-54
2021/12/02 04:32:43;;;;;;;17.40;4.30;;;4.70;99.90;;;;;;4994020;28;20232;-54
2021/12/02 04:35:12;;;;;;;14.63;4.23;;;4.70;99.90;;;;;;4993765;28;20255;-54
2021/12/02 04:37:42;;;;;;;9.97;4.50;;;4.80;99.90;;;;;;4993667;28;20210;-54
2021/12/02 04:40:15;;;;;;;12.23;4.07;;;4.80;99.90;;;;;;4993970;28;20258;-54
2021/12/02 04:42:44;;;;;;;11.70;4.50;;;4.70;99.90;;;;;;4993546;28;20240;-55
2021/12/02 04:45:13;;;;;;;12.00;4.23;;;4.70;99.90;;;;;;4993950;28;20254;-54
2021/12/02 04:47:42;;;;;;;14.27;4.07;;;4.70;99.90;;;;;;4993651;28;20237;-55
2021/12/02 04:50:12;;;;;;;15.40;3.93;;;4.80;99.90;;;;;;4993209;28;20267;-55
2021/12/02 04:52:40;;;;;;;12.57;3.90;;;4.80;99.90;;;;;;4993291;28;20207;-55
2021/12/02 04:55:09;;;;;;;8.00;3.83;;;4.80;99.90;;;;;;4993357;28;20253;-55
2021/12/02 04:57:37;;;;;;;12.23;3.93;;;4.80;99.90;;;;;;4993379;28;20253;-55
2021/12/02 05:00:07;;;;;;;15.00;4.60;;;4.80;99.90;;;;;;4993006;28;20723;-55
2021/12/02 05:02:36;;;;;;;15.90;4.53;;;4.90;99.90;;;;;;4993458;28;20811;-55
2021/12/02 05:05:06;;;;;;;9.83;3.90;;;4.90;99.90;;;;;;4993017;28;20204;-53
2021/12/02 05:07:34;;;;;;;9.87;4.20;;;4.90;99.90;;;;;;4993153;28;20226;-53
2021/12/02 05:10:03;;;;;;;12.43;4.17;;;4.90;99.90;;;;;;4992904;28;20719;-54
2021/12/02 05:12:32;;;;;;;13.47;4.23;;;5.00;99.90;;;;;;4992988;28;20247;-55
2021/12/02 05:15:00;;;;;;;18.47;4.43;;;5.00;99.90;;;;;;4993272;28;20240;-54
2021/12/02 05:17:28;;;;;;;13.47;4.20;;;4.90;99.90;;;;;;4993113;28;20360;-55
2021/12/02 05:19:58;;;;;;;15.10;4.10;;;4.90;99.90;;;;;;4992907;28;20648;-54
2021/12/02 05:22:26;;;;;;;15.60;4.47;;;4.90;99.90;;;;;;4992674;28;20239;-55
2021/12/02 05:24:54;;;;;;;15.93;3.90;;;4.80;99.90;;;;;;4992941;28;20238;-54
2021/12/02 05:27:22;;;;;;;17.07;4.00;;;4.70;99.90;;;;;;4992096;28;20266;-53
2021/12/02 05:29:50;;;;;;;12.80;4.40;;;4.70;99.90;;;;;;4992799;28;20290;-55
2021/12/02 05:32:18;;;;;;;10.20;3.87;;;4.70;99.90;;;;;;4992602;28;20257;-54
2021/12/02 05:34:48;;;;;;;10.87;4.13;;;4.70;99.90;;;;;;4992726;28;20675;-54
2021/12/02 05:37:22;;;;;;;15.17;4.60;;;4.60;99.90;;;;;;4992561;28;20219;-54
2021/12/02 05:39:50;;;;;;;15.27;4.50;;;4.60;99.90;;;;;;4992611;28;20266;-54
2021/12/02 05:42:19;;;;;;;13.17;4.37;;;4.60;99.90;;;;;;4992300;28;20254;-55
2021/12/02 05:44:52;;;;;;;11.37;4.20;;;4.60;99.90;;;;;;4992835;28;20200;-54
2021/12/02 05:47:20;;;;;;;10.27;4.03;;;4.60;99.90;;;;;;4992294;28;20265;-55
2021/12/02 05:49:48;;;;;;;14.10;4.77;;;4.60;99.90;;;;;;4992323;28;20262;-54
2021/12/02 05:52:22;;;;;;;11.80;4.57;;;4.60;99.90;;;;;;4992013;28;20204;-54
2021/12/02 05:54:50;;;;;;;13.57;4.20;;;4.70;99.90;;;;;;4992339;28;20237;-54
2021/12/02 05:57:18;;;;;;;15.23;5.43;;;4.70;99.90;;;;;;4991954;28;20705;-54
2021/12/02 05:59:46;;;;;;;15.07;4.43;;;4.70;99.90;;;;;;4992276;28;20666;-53
2021/12/02 06:02:14;;;;;;;10.27;4.60;;;4.70;99.90;;;;;;4991997;28;20316;-55
2021/12/02 06:04:44;;;;;;;11.60;5.10;;;4.60;99.90;;;;;;4992069;28;20217;-54
2021/12/02 06:07:12;;;;;;;12.00;5.10;;;4.60;99.90;;;;;;4992086;28;20250;-54
2021/12/02 06:09:41;;;;;;;14.63;5.53;;;4.70;99.90;;;;;;4991763;28;20251;-54
2021/12/02 06:12:10;;;;;;;12.07;4.83;;;4.70;99.90;;;;;;4991674;28;20256;-54
2021/12/02 06:14:38;;;;;;;9.00;4.50;;;4.60;99.90;;;;;;4991978;28;20295;-55
2021/12/02 06:17:06;;;;;;;12.27;4.90;;;4.70;99.90;;;;;;4991488;28;20211;-53
2021/12/02 06:19:34;;;;;;;10.63;4.80;;;4.70;99.90;;;;;;4991431;28;20347;-53
2021/12/02 06:22:02;;;;;;;13.17;4.90;;;4.70;99.90;;;;;;4991681;28;20306;-54
2021/12/02 06:24:32;;;;;;;12.27;4.83;;;4.70;99.90;;;;;;4991764;28;20228;-54
2021/12/02 06:27:02;;;;;;;11.40;5.10;;;4.70;99.90;;;;;;4991581;28;20249;-53
2021/12/02 06:29:30;;;;;;;9.57;5.17;;;4.80;99.90;;;;;;4991438;28;20283;-55
2021/12/02 06:31:58;;;;;;;11.07;4.60;;;4.80;99.90;;;;;;4992071;28;20247;-53
2021/12/02 06:34:26;;;;;;;9.40;4.37;;;4.80;99.90;;;;;;4992163;28;20246;-54
2021/12/02 06:36:54;;;;;;;11.90;4.23;;;4.80;99.90;;;;;;4991645;28;20250;-53
2021/12/02 06:39:22;;;;;;;11.17;4.50;;;4.80;99.90;;;;;;4986202;28;20266;-54
2021/12/02 06:41:50;;;;;;;11.63;4.67;;;4.80;99.90;;;;;;4980928;28;20250;-55
2021/12/02 06:44:19;;;;;;;12.57;4.90;;;4.80;99.90;;;;;;4991380;28;20249;-53
2021/12/02 06:46:47;;;;;;;8.03;4.40;;;4.70;99.90;;;;;;4991580;28;20249;-54
2021/12/02 06:49:15;;;;;;;7.37;4.37;;;4.80;99.90;;;;;;4991175;28;20708;-53
2021/12/02 06:51:43;;;;;;;5.20;3.60;;;4.70;99.90;;;;;;4982729;28;20256;-54
2021/12/02 06:54:11;;;;;;;9.00;3.97;;;4.70;99.90;;;;;;4987336;28;20243;-54
2021/12/02 06:56:51;;;;;;;7.73;4.60;;;4.70;99.90;;;;;;4981426;28;20289;-54
2021/12/02 06:59:21;;;;;;;5.50;4.23;;;4.70;99.90;;;;;;4971939;28;20230;-54
2021/12/02 07:01:49;;;;;;;7.07;5.07;;;4.70;99.90;;;;;;4971606;28;20239;-55
2021/12/02 07:04:17;;;;;;;6.77;4.50;;;4.60;99.90;;;;;;4971668;28;20210;-54
2021/12/02 07:06:45;;;;;;;8.40;4.47;;;4.70;99.90;;;;;;4971538;28;20761;-54
2021/12/02 07:09:14;;;;;;;8.93;4.47;;;4.70;99.90;;;;;;4975149;28;20316;-54
2021/12/02 07:11:42;;;;;;;10.53;5.30;;;4.70;99.90;;;;;;4991067;28;20235;-54
2021/12/02 07:14:13;;;;;;;9.40;4.53;;;4.70;99.90;;;;;;4991087;28;20257;-53
2021/12/02 07:16:43;;;;;;;6.33;4.30;;;4.70;99.90;;;;;;4991162;28;20676;-55
2021/12/02 07:19:14;;;;;;;6.70;4.50;;;4.70;99.90;;;;;;4990504;28;20400;-55
2021/12/02 07:21:43;;;;;;;6.87;4.07;;;4.60;99.90;;;;;;4991073;28;20740;-53
2021/12/02 07:24:13;;;;;;;7.40;4.90;;;4.60;99.90;;;;;;4991333;28;20204;-54
2021/12/02 07:27:01;;;;;;;7.57;5.07;;;4.60;99.90;;;;;;4991227;28;20597;-53
2021/12/02 07:29:31;;;;;;;9.77;4.70;;;4.70;99.90;;;;;;4992386;28;20254;-53
2021/12/02 07:32:03;;;;;;;8.67;5.03;;;4.70;99.90;;;;;;4994860;28;20215;-53
2021/12/02 07:34:36;;;;;;;10.97;4.97;;;4.60;99.90;;;;;;4995013;28;20616;-54
2021/12/02 07:37:04;;;;;;;6.57;4.17;;;4.50;99.90;;;;;;4994572;28;20713;-55
2021/12/02 07:39:32;;;;;;;8.50;5.10;;;4.50;99.90;;;;;;4994673;28;20778;-54
2021/12/02 07:42:21;;;;;;;9.03;4.83;;;4.50;99.90;;;;;;4994260;28;20218;-55
2021/12/02 07:44:49;;;;;;;8.87;4.90;;;4.50;99.90;;;;;;4994708;28;20294;-54
2021/12/02 07:47:19;;;;;;;9.00;4.77;;;4.50;99.90;;;;;;4994269;28;20339;-54
2021/12/02 07:49:49;;;;;;;9.50;4.70;;;4.50;99.90;;;;;;4988690;28;20704;-54
2021/12/02 07:52:21;;;;;;;9.47;4.40;;;4.50;99.90;;;;;;4979175;28;20257;-53
2021/12/02 07:54:51;;;;;;;7.20;4.70;;;4.70;99.90;;;;;;4994227;28;20255;-54
2021/12/02 07:57:20;;;;;;;6.03;4.70;;;4.70;99.90;;;;;;4994269;28;20207;-54
2021/12/02 07:59:50;;;;;;;9.53;6.00;;;4.70;99.90;;;;;;4994582;28;20225;-54
2021/12/02 08:02:21;;;;;;;9.00;5.80;;;4.70;99.90;;;;;;4994033;28;20735;-53
2021/12/02 08:04:49;;;;;;;9.07;6.70;;;4.80;99.90;;;;;;4994431;28;20193;-55
2021/12/02 08:07:17;;;;;;;22.70;16.97;;;4.70;99.90;;;;;;4994015;28;20240;-53
2021/12/02 08:09:45;;;;;;;11.13;8.57;;;4.80;99.90;;;;;;4994110;28;20743;-55
2021/12/02 08:12:13;;;;;;;25.87;18.63;;;4.80;99.90;;;;;;4993972;28;20261;-56
2021/12/02 08:14:41;;;;;;;12.50;9.37;;;4.80;99.90;;;;;;4994230;28;20234;-55
2021/12/02 08:17:09;;;;;;;11.63;7.53;;;4.80;99.90;;;;;;4994396;28;20245;-56
2021/12/02 08:19:39;;;;;;;7.43;5.47;;;4.90;99.90;;;;;;4993702;28;20235;-54
2021/12/02 08:22:07;;;;;;;6.63;4.93;;;4.90;99.90;;;;;;4993590;28;20305;-53
2021/12/02 08:24:35;;;;;;;11.60;5.43;;;4.90;99.90;;;;;;4994067;28;20693;-53
2021/12/02 08:27:03;;;;;;;9.07;6.33;;;4.90;99.90;;;;;;4994162;28;20239;-54
2021/12/02 08:29:32;;;;;;;5.30;4.77;;;4.90;99.90;;;;;;4993651;28;20270;-54
2021/12/02 08:32:01;;;;;;;8.93;5.30;;;4.90;99.90;;;;;;4993674;28;20771;-55
2021/12/02 08:34:30;;;;;;;9.23;6.20;;;5.00;99.90;;;;;;4993707;28;20877;-53
2021/12/02 08:36:59;;;;;;;7.40;5.70;;;5.10;99.90;;;;;;4993817;28;20250;-54
2021/12/02 08:39:28;;;;;;;6.17;5.27;;;5.10;99.90;;;;;;4993650;28;20625;-53
2021/12/02 08:41:57;;;;;;;9.27;5.37;;;5.10;99.90;;;;;;4989673;28;20980;-55
2021/12/02 08:44:26;;;;;;;5.87;5.13;;;5.10;99.90;;;;;;4980716;28;20303;-54
2021/12/02 08:46:55;;;;;;;6.97;5.40;;;5.10;99.90;;;;;;4993555;28;20215;-55
2021/12/02 08:49:23;;;;;;;6.72;5.82;;;5.00;99.90;;;;;;4992670;28;20484;-55
2021/12/02 08:51:52;;;;;;;8.80;5.70;;;5.20;99.90;;;;;;4993465;28;20216;-54
2021/12/02 08:54:22;;;;;;;5.87;5.27;;;5.20;99.90;;;;;;4993770;28;20255;-54
2021/12/02 08:56:50;;;;;;;8.10;5.70;;;5.20;99.90;;;;;;4993227;28;20243;-54
2021/12/02 08:59:18;;;;;;;9.47;6.13;;;5.20;99.90;;;;;;4993657;28;20351;-54
2021/12/02 09:01:47;;;;;;;8.27;5.93;;;5.10;99.90;;;;;;4992575;28;20350;-55
2021/12/02 09:04:15;;;;;;;6.13;5.53;;;5.20;99.90;;;;;;4993602;28;20258;-56
2021/12/02 09:06:43;;;;;;;11.03;8.33;;;5.20;99.90;;;;;;4992910;28;20243;-55
2021/12/02 09:09:11;;;;;;;8.50;6.57;;;5.20;99.90;;;;;;4993268;28;20239;-55
2021/12/02 09:11:41;;;;;;;10.27;6.40;;;5.20;99.90;;;;;;4993011;28;20222;-54
2021/12/02 09:14:09;;;;;;;14.60;11.03;;;5.20;99.90;;;;;;4993214;28;20231;-55
2021/12/02 09:16:37;;;;;;;12.70;10.40;;;5.20;99.90;;;;;;4992968;28;20596;-56
2021/12/02 09:19:06;;;;;;;33.00;21.10;;;5.20;99.90;;;;;;4993165;28;20283;-54
2021/12/02 09:21:34;;;;;;;10.77;9.03;;;5.20;99.90;;;;;;4992586;28;20265;-53
2021/12/02 09:24:02;;;;;;;11.00;9.37;;;5.10;99.90;;;;;;4993046;28;20243;-55
2021/12/02 09:26:30;;;;;;;21.67;19.30;;;5.00;99.90;;;;;;4992849;28;20239;-54
2021/12/02 09:28:59;;;;;;;9.97;8.70;;;4.90;99.90;;;;;;4992730;28;20269;-55
2021/12/02 09:31:27;;;;;;;11.17;9.10;;;4.80;99.90;;;;;;4992966;28;20862;-54
2021/12/02 09:33:55;;;;;;;8.80;6.93;;;4.90;99.90;;;;;;4992725;28;20225;-54
2021/12/02 09:36:23;;;;;;;12.03;7.73;;;4.90;99.90;;;;;;4992312;28;20734;-53
2021/12/02 09:38:52;;;;;;;8.33;7.37;;;5.00;99.90;;;;;;4992662;28;20235;-54
2021/12/02 09:41:20;;;;;;;7.73;6.90;;;5.00;99.90;;;;;;4992590;28;20287;-55
2021/12/02 09:43:48;;;;;;;8.00;5.40;;;5.00;99.90;;;;;;4992457;28;20253;-54
2021/12/02 09:46:17;;;;;;;7.73;6.67;;;5.00;99.90;;;;;;4992591;28;20815;-54
2021/12/02 09:48:46;;;;;;;9.50;6.80;;;5.00;99.90;;;;;;4991968;28;20216;-54
2021/12/02 09:51:19;;;;;;;7.80;5.60;;;5.00;99.90;;;;;;4992326;28;20263;-55
2021/12/02 09:54:12;;;;;;;7.70;6.00;;;5.00;99.90;;;;;;4992392;28;20210;-55
2021/12/02 09:56:42;;;;;;;7.80;5.50;;;5.20;99.90;;;;;;4992502;28;20219;-55
2021/12/02 09:59:21;;;;;;;8.50;7.70;;;5.30;99.90;;;;;;4991928;28;20709;-55
2021/12/02 10:01:54;;;;;;;7.67;6.93;;;5.40;99.90;;;;;;4992690;28;20199;-54
2021/12/02 10:04:23;;;;;;;6.20;4.97;;;5.50;99.90;;;;;;4991995;28;20203;-54
2021/12/02 10:07:08;;;;;;;4.70;4.03;;;5.60;99.90;;;;;;4992371;28;20262;-54
2021/12/02 10:09:43;;;;;;;6.07;4.93;;;5.70;99.90;;;;;;4991900;28;20779;-54
2021/12/02 10:12:16;;;;;;;4.23;3.67;;;5.70;99.90;;;;;;4992038;28;20298;-55
2021/12/02 10:14:51;;;;;;;6.60;4.87;;;5.70;99.90;;;;;;4992278;28;20243;-54
2021/12/02 10:17:27;;;;;;;5.67;4.97;;;5.80;99.90;;;;;;4992197;28;20679;-54
2021/12/02 10:20:14;;;;;;;7.57;6.80;;;5.90;99.90;;;;;;4991554;28;20274;-55
2021/12/02 10:22:46;;;;;;;5.00;4.50;;;6.00;99.90;;;;;;4972750;28;20248;-53
2021/12/02 10:25:29;;;;;;;6.33;5.73;;;6.00;99.90;;;;;;4972760;28;20220;-53
2021/12/02 10:28:05;;;;;;;4.80;3.63;;;6.00;99.90;;;;;;4971774;28;20247;-53
2021/12/02 10:30:33;;;;;;;3.40;3.10;;;6.00;99.90;;;;;;4972495;28;20303;-53
2021/12/02 10:33:03;;;;;;;5.93;4.27;;;5.80;99.90;;;;;;4972396;28;20243;-54
2021/12/02 10:35:42;;;;;;;11.73;10.30;;;5.70;99.90;;;;;;4972551;28;20239;-54
2021/12/02 10:38:35;;;;;;;4.97;4.00;;;5.70;99.90;;;;;;4972262;28;20212;-53
2021/12/02 10:41:07;;;;;;;10.67;8.80;;;5.60;99.90;;;;;;4972451;28;20212;-53
2021/12/02 10:43:35;;;;;;;20.87;16.43;;;5.60;99.90;;;;;;4973064;28;20251;-55
2021/12/02 10:46:15;;;;;;;11.13;7.73;;;5.60;99.90;;;;;;4983863;28;20618;-54
2021/12/02 10:48:50;;;;;;;4.07;3.13;;;5.70;99.90;;;;;;4991458;28;20216;-55
2021/12/02 10:51:39;;;;;;;4.97;3.40;;;5.80;99.90;;;;;;4991395;28;20258;-54
2021/12/02 10:54:12;;;;;;;4.15;3.30;;;5.80;99.90;;;;;;4991121;28;20536;-54
2021/12/02 10:56:42;;;;;;;10.70;8.30;;;5.80;99.90;;;;;;4991381;28;20307;-54
2021/12/02 10:59:27;;;;;;;7.83;5.80;;;5.80;99.90;;;;;;4991192;28;20249;-55
2021/12/02 11:01:57;;;;;;;3.70;3.40;;;5.80;99.90;;;;;;4991731;28;20251;-53
2021/12/02 11:04:27;;;;;;;6.40;5.00;;;5.70;99.90;;;;;;4992727;28;20216;-54
2021/12/02 11:07:01;;;;;;;6.97;4.10;;;5.70;99.90;;;;;;4995406;28;20236;-54
2021/12/02 11:09:31;;;;;;;6.30;5.40;;;5.70;99.90;;;;;;4995088;28;20771;-54
2021/12/02 11:12:18;;;;;;;7.73;6.23;;;5.60;99.90;;;;;;4975038;28;20306;-54
2021/12/02 11:14:56;;;;;;;6.40;5.10;;;5.60;99.90;;;;;;4975262;28;20723;-54
2021/12/02 11:17:29;;;;;;;10.93;7.87;;;5.60;99.90;;;;;;4989610;28;20685;-55
2021/12/02 11:20:00;;;;;;;11.97;10.80;;;5.60;99.90;;;;;;4994273;28;20750;-55
2021/12/02 11:22:30;;;;;;;9.37;6.57;;;5.50;99.90;;;;;;4995137;28;20584;-54
2021/12/02 11:25:01;;;;;;;6.13;4.80;;;5.40;99.90;;;;;;4994483;28;20247;-53
2021/12/02 11:27:34;;;;;;;4.47;4.07;;;5.40;99.90;;;;;;4994612;28;20250;-54
2021/12/02 11:30:06;;;;;;;8.23;6.50;;;5.40;99.90;;;;;;4994292;28;20242;-54
2021/12/02 11:32:38;;;;;;;6.70;4.97;;;5.50;99.90;;;;;;4995371;28;20196;-54
2021/12/02 11:35:12;;;;;;;7.60;6.03;;;5.40;99.90;;;;;;4994484;28;20238;-54
2021/12/02 11:37:43;;;;;;;8.83;6.27;;;5.40;99.90;;;;;;4994665;28;20203;-54
2021/12/02 11:40:15;;;;;;;6.97;5.10;;;5.40;99.90;;;;;;4994825;28;20645;-54
2021/12/02 11:42:43;;;;;;;4.50;4.10;;;5.40;99.90;;;;;;4994402;28;20625;-53
2021/12/02 11:45:16;;;;;;;4.30;3.90;;;5.50;99.90;;;;;;4994786;28;20237;-54
2021/12/02 11:47:45;;;;;;;2.70;2.50;;;5.50;99.90;;;;;;4994469;28;20244;-55
2021/12/02 11:50:16;;;;;;;4.73;4.23;;;5.50;99.90;;;;;;4994395;28;20273;-55
2021/12/02 11:52:44;;;;;;;2.70;2.50;;;5.50;99.90;;;;;;4994271;28;20224;-53
2021/12/02 11:55:15;;;;;;;3.90;3.60;;;5.40;99.90;;;;;;4994373;28;20692;-54
2021/12/02 11:57:44;;;;;;;6.53;4.93;;;5.30;99.90;;;;;;4994107;28;20193;-53
2021/12/02 12:00:15;;;;;;;4.63;4.23;;;5.20;99.90;;;;;;4994463;28;20285;-54
2021/12/02 12:02:49;;;;;;;4.10;3.80;;;5.10;99.90;;;;;;4994114;28;20235;-54
2021/12/02 12:05:24;;;;;;;5.50;4.60;;;5.10;99.90;;;;;;4994286;28;20221;-55
2021/12/02 12:07:53;;;;;;;18.53;13.93;;;5.10;99.90;;;;;;4994085;28;20699;-54
2021/12/02 12:10:25;;;;;;;23.83;16.63;;;5.20;99.90;;;;;;4993943;28;20723;-55
2021/12/02 12:13:13;;;;;;;13.57;8.50;;;5.20;99.90;;;;;;4993994;28;20272;-54
2021/12/02 12:15:44;;;;;;;20.37;13.37;;;5.30;99.90;;;;;;4992610;28;20703;-55
2021/12/02 12:18:20;;;;;;;36.30;23.00;;;5.30;99.90;;;;;;4994322;28;20219;-53
2021/12/02 12:21:04;;;;;;;10.43;7.77;;;5.40;99.90;;;;;;4993290;28;20692;-55
2021/12/02 12:23:58;;;;;;;6.40;5.03;;;5.50;99.90;;;;;;4994299;28;20398;-54
2021/12/02 12:26:31;;;;;;;9.93;7.70;;;5.50;99.90;;;;;;4993405;28;20702;-55
2021/12/02 12:29:20;;;;;;;6.30;5.40;;;5.60;99.90;;;;;;4993798;28;20259;-55
2021/12/02 12:32:23;;;;;;;23.63;17.67;;;5.70;99.90;;;;;;4988041;28;20708;-55
2021/12/02 12:34:57;;;;;;;3.47;3.17;;;5.60;99.90;;;;;;4994397;28;20223;-54
2021/12/02 12:37:49;;;;;;;3.90;3.00;;;5.60;99.90;;;;;;4993068;28;20246;-54
2021/12/02 12:40:25;;;;;;;2.97;2.77;;;5.60;99.90;;;;;;4992573;28;20231;-56
2021/12/02 12:43:09;;;;;;;3.50;3.20;;;5.20;99.90;;;;;;4983608;28;20738;-54
2021/12/02 12:45:41;;;;;;;2.93;2.73;;;5.00;99.90;;;;;;4992912;28;20250;-55
2021/12/02 12:48:11;;;;;;;2.73;2.53;;;5.00;99.90;;;;;;4992706;28;20223;-53
2021/12/02 12:50:42;;;;;;;2.80;2.60;;;5.00;99.90;;;;;;4977086;28;20264;-54
2021/12/02 12:53:40;;;;;;;2.60;2.40;;;5.10;99.90;;;;;;4992861;28;20258;-54
2021/12/02 12:56:11;;;;;;;2.73;2.53;;;5.10;99.90;;;;;;4961586;28;20204;-54
2021/12/02 12:58:59;;;;;;;2.57;2.37;;;5.10;99.90;;;;;;4992451;28;20234;-53
2021/12/02 13:01:28;;;;;;;2.80;2.60;;;5.10;99.90;;;;;;4993254;28;20282;-54
2021/12/02 13:04:13;;;;;;;2.87;2.63;;;5.10;99.90;;;;;;4993285;28;20215;-54
2021/12/02 13:07:10;;;;;;;2.60;2.40;;;5.10;99.90;;;;;;4992800;28;20208;-55
2021/12/02 13:12:52;;;;;;;2.80;2.60;;;5.20;99.90;;;;;;4992878;28;20283;-54
2021/12/02 13:15:24;;;;;;;2.77;2.57;;;5.20;99.90;;;;;;4992674;28;20239;-55
2021/12/02 13:17:54;;;;;;;3.10;2.30;;;5.20;99.90;;;;;;4992681;28;20217;-53
2021/12/02 13:20:31;;;;;;;2.80;2.60;;;5.20;99.90;;;;;;4992411;28;20282;-54
2021/12/02 13:23:25;;;;;;;2.70;2.50;;;5.20;99.90;;;;;;4992787;28;20199;-54